sensor_id;sensor_type;location;lat;lon;timestamp;temperature;humidity
70336;SHT31;57756;47.408;18.940;2023-07-31T00:00:06;19.77;93.62
70336;SHT31;57756;47.408;18.940;2023-07-31T00:02:34;19.79;93.60
70336;SHT31;57756;47.408;18.940;2023-07-31T00:05:00;19.78;93.52
70336;SHT31;57756;47.408;18.940;2023-07-31T00:07:26;19.78;93.47
70336;SHT31;57756;47.408;18.940;2023-07-31T00:09:51;19.75;93.54
70336;SHT31;57756;47.408;18.940;2023-07-31T00:12:19;19.74;93.66
70336;SHT31;57756;47.408;18.940;2023-07-31T00:14:44;19.78;93.54
70336;SHT31;57756;47.408;18.940;2023-07-31T00:17:10;19.71;93.79
70336;SHT31;57756;47.408;18.940;2023-07-31T00:19:35;19.77;93.77
70336;SHT31;57756;47.408;18.940;2023-07-31T00:22:00;19.71;93.66
70336;SHT31;57756;47.408;18.940;2023-07-31T00:24:26;19.72;93.74
70336;SHT31;57756;47.408;18.940;2023-07-31T00:26:52;19.74;93.80
70336;SHT31;57756;47.408;18.940;2023-07-31T00:29:17;19.74;93.94
70336;SHT31;57756;47.408;18.940;2023-07-31T00:31:42;19.68;94.09
70336;SHT31;57756;47.408;18.940;2023-07-31T00:34:08;19.67;94.11
70336;SHT31;57756;47.408;18.940;2023-07-31T00:36:33;19.61;94.20
70336;SHT31;57756;47.408;18.940;2023-07-31T00:38:59;19.61;94.32
70336;SHT31;57756;47.408;18.940;2023-07-31T00:41:24;19.59;94.32
70336;SHT31;57756;47.408;18.940;2023-07-31T00:43:50;19.55;94.32
70336;SHT31;57756;47.408;18.940;2023-07-31T00:46:15;19.54;94.48
70336;SHT31;57756;47.408;18.940;2023-07-31T00:48:41;19.48;94.67
70336;SHT31;57756;47.408;18.940;2023-07-31T00:51:07;19.47;94.65
70336;SHT31;57756;47.408;18.940;2023-07-31T00:53:34;19.40;94.78
70336;SHT31;57756;47.408;18.940;2023-07-31T00:55:59;19.43;94.67
70336;SHT31;57756;47.408;18.940;2023-07-31T00:58:24;19.46;94.77
70336;SHT31;57756;47.408;18.940;2023-07-31T01:00:50;19.41;94.65
70336;SHT31;57756;47.408;18.940;2023-07-31T01:03:16;19.40;94.78
70336;SHT31;57756;47.408;18.940;2023-07-31T01:06:36;19.38;94.75
70336;SHT31;57756;47.408;18.940;2023-07-31T01:08:48;19.37;94.75
70336;SHT31;57756;47.408;18.940;2023-07-31T01:11:24;19.35;94.66
70336;SHT31;57756;47.408;18.940;2023-07-31T01:13:51;19.35;94.76
70336;SHT31;57756;47.408;18.940;2023-07-31T01:16:17;19.35;94.75
70336;SHT31;57756;47.408;18.940;2023-07-31T01:18:42;19.38;94.54
70336;SHT31;57756;47.408;18.940;2023-07-31T01:21:29;19.37;94.54
70336;SHT31;57756;47.408;18.940;2023-07-31T01:26:45;19.34;94.66
70336;SHT31;57756;47.408;18.940;2023-07-31T01:29:38;19.28;94.59
70336;SHT31;57756;47.408;18.940;2023-07-31T01:32:09;19.21;95.08
70336;SHT31;57756;47.408;18.940;2023-07-31T01:34:36;19.26;94.89
70336;SHT31;57756;47.408;18.940;2023-07-31T01:37:02;19.21;94.93
70336;SHT31;57756;47.408;18.940;2023-07-31T01:39:28;19.14;94.86
70336;SHT31;57756;47.408;18.940;2023-07-31T01:41:54;19.20;94.50
70336;SHT31;57756;47.408;18.940;2023-07-31T01:44:19;19.16;94.43
70336;SHT31;57756;47.408;18.940;2023-07-31T01:46:45;19.16;94.24
70336;SHT31;57756;47.408;18.940;2023-07-31T01:49:11;19.07;94.36
70336;SHT31;57756;47.408;18.940;2023-07-31T01:51:36;19.10;94.24
70336;SHT31;57756;47.408;18.940;2023-07-31T01:54:02;18.98;94.55
70336;SHT31;57756;47.408;18.940;2023-07-31T01:56:27;18.93;94.52
70336;SHT31;57756;47.408;18.940;2023-07-31T01:58:53;18.93;94.58
70336;SHT31;57756;47.408;18.940;2023-07-31T02:01:18;18.93;94.80
70336;SHT31;57756;47.408;18.940;2023-07-31T02:03:44;18.86;94.76
70336;SHT31;57756;47.408;18.940;2023-07-31T02:06:09;18.85;94.50
70336;SHT31;57756;47.408;18.940;2023-07-31T02:08:35;18.82;94.64
70336;SHT31;57756;47.408;18.940;2023-07-31T02:11:00;18.77;94.42
70336;SHT31;57756;47.408;18.940;2023-07-31T02:13:26;18.77;94.17
70336;SHT31;57756;47.408;18.940;2023-07-31T02:15:51;18.76;94.08
70336;SHT31;57756;47.408;18.940;2023-07-31T02:18:17;18.75;94.03
70336;SHT31;57756;47.408;18.940;2023-07-31T02:20:42;18.72;93.75
70336;SHT31;57756;47.408;18.940;2023-07-31T02:23:08;18.76;93.59
70336;SHT31;57756;47.408;18.940;2023-07-31T02:25:34;18.71;93.62
70336;SHT31;57756;47.408;18.940;2023-07-31T02:27:59;18.77;93.30
70336;SHT31;57756;47.408;18.940;2023-07-31T02:30:25;18.71;93.35
70336;SHT31;57756;47.408;18.940;2023-07-31T02:32:50;18.68;93.25
70336;SHT31;57756;47.408;18.940;2023-07-31T02:35:16;18.73;93.21
70336;SHT31;57756;47.408;18.940;2023-07-31T02:37:42;18.66;93.35
70336;SHT31;57756;47.408;18.940;2023-07-31T02:40:08;18.66;93.32
70336;SHT31;57756;47.408;18.940;2023-07-31T02:42:33;18.68;93.01
70336;SHT31;57756;47.408;18.940;2023-07-31T02:44:59;18.59;93.33
70336;SHT31;57756;47.408;18.940;2023-07-31T02:47:24;18.66;93.31
70336;SHT31;57756;47.408;18.940;2023-07-31T02:49:50;18.59;93.24
70336;SHT31;57756;47.408;18.940;2023-07-31T02:52:15;18.59;93.13
70336;SHT31;57756;47.408;18.940;2023-07-31T02:54:41;18.61;93.10
70336;SHT31;57756;47.408;18.940;2023-07-31T02:57:06;18.56;93.20
70336;SHT31;57756;47.408;18.940;2023-07-31T02:59:32;18.54;93.49
70336;SHT31;57756;47.408;18.940;2023-07-31T03:01:57;18.48;93.39
70336;SHT31;57756;47.408;18.940;2023-07-31T03:04:23;18.45;93.55
70336;SHT31;57756;47.408;18.940;2023-07-31T03:06:48;18.45;93.63
70336;SHT31;57756;47.408;18.940;2023-07-31T03:09:14;18.43;93.56
70336;SHT31;57756;47.408;18.940;2023-07-31T03:11:39;18.47;93.19
70336;SHT31;57756;47.408;18.940;2023-07-31T03:14:04;18.41;93.49
70336;SHT31;57756;47.408;18.940;2023-07-31T03:16:30;18.43;93.25
70336;SHT31;57756;47.408;18.940;2023-07-31T03:18:55;18.45;93.23
70336;SHT31;57756;47.408;18.940;2023-07-31T03:21:21;18.47;92.85
70336;SHT31;57756;47.408;18.940;2023-07-31T03:23:46;18.44;92.95
70336;SHT31;57756;47.408;18.940;2023-07-31T03:26:12;18.47;93.18
70336;SHT31;57756;47.408;18.940;2023-07-31T03:28:37;18.44;92.98
70336;SHT31;57756;47.408;18.940;2023-07-31T03:31:03;18.44;93.01
70336;SHT31;57756;47.408;18.940;2023-07-31T03:33:28;18.47;93.09
70336;SHT31;57756;47.408;18.940;2023-07-31T03:35:54;18.43;92.82
70336;SHT31;57756;47.408;18.940;2023-07-31T03:38:19;18.45;93.28
70336;SHT31;57756;47.408;18.940;2023-07-31T03:40:44;18.45;92.84
70336;SHT31;57756;47.408;18.940;2023-07-31T03:43:10;18.45;92.86
70336;SHT31;57756;47.408;18.940;2023-07-31T03:45:36;18.48;93.15
70336;SHT31;57756;47.408;18.940;2023-07-31T03:48:02;18.52;92.68
70336;SHT31;57756;47.408;18.940;2023-07-31T03:50:27;18.48;93.08
70336;SHT31;57756;47.408;18.940;2023-07-31T03:52:53;18.49;93.32
70336;SHT31;57756;47.408;18.940;2023-07-31T03:55:18;18.48;92.95
70336;SHT31;57756;47.408;18.940;2023-07-31T03:57:44;18.52;92.50
70336;SHT31;57756;47.408;18.940;2023-07-31T04:00:10;18.56;92.67
70336;SHT31;57756;47.408;18.940;2023-07-31T04:02:35;18.56;92.64
70336;SHT31;57756;47.408;18.940;2023-07-31T04:05:01;18.58;92.48
70336;SHT31;57756;47.408;18.940;2023-07-31T04:07:27;18.64;92.49
70336;SHT31;57756;47.408;18.940;2023-07-31T04:09:52;18.69;91.80
70336;SHT31;57756;47.408;18.940;2023-07-31T04:12:17;18.68;91.76
70336;SHT31;57756;47.408;18.940;2023-07-31T04:14:43;18.73;91.47
70336;SHT31;57756;47.408;18.940;2023-07-31T04:17:08;18.69;91.40
70336;SHT31;57756;47.408;18.940;2023-07-31T04:19:34;18.72;91.57
70336;SHT31;57756;47.408;18.940;2023-07-31T04:21:59;18.72;91.98
70336;SHT31;57756;47.408;18.940;2023-07-31T04:24:25;18.71;91.77
70336;SHT31;57756;47.408;18.940;2023-07-31T04:26:51;18.73;91.82
70336;SHT31;57756;47.408;18.940;2023-07-31T04:29:17;18.81;91.32
70336;SHT31;57756;47.408;18.940;2023-07-31T04:31:42;18.75;91.42
70336;SHT31;57756;47.408;18.940;2023-07-31T04:34:07;18.77;91.60
70336;SHT31;57756;47.408;18.940;2023-07-31T04:36:34;18.79;91.59
70336;SHT31;57756;47.408;18.940;2023-07-31T04:38:59;18.82;90.97
70336;SHT31;57756;47.408;18.940;2023-07-31T04:41:25;18.86;90.86
70336;SHT31;57756;47.408;18.940;2023-07-31T04:43:50;18.83;90.54
70336;SHT31;57756;47.408;18.940;2023-07-31T04:46:16;18.93;89.49
70336;SHT31;57756;47.408;18.940;2023-07-31T04:48:42;18.96;89.33
70336;SHT31;57756;47.408;18.940;2023-07-31T04:51:08;19.02;89.43
70336;SHT31;57756;47.408;18.940;2023-07-31T04:53:34;19.03;89.89
70336;SHT31;57756;47.408;18.940;2023-07-31T04:56:00;19.06;89.13
70336;SHT31;57756;47.408;18.940;2023-07-31T04:58:25;19.11;88.57
70336;SHT31;57756;47.408;18.940;2023-07-31T05:00:51;19.13;88.41
70336;SHT31;57756;47.408;18.940;2023-07-31T05:03:16;19.20;89.13
70336;SHT31;57756;47.408;18.940;2023-07-31T05:05:42;19.34;89.36
70336;SHT31;57756;47.408;18.940;2023-07-31T05:08:07;19.62;88.37
70336;SHT31;57756;47.408;18.940;2023-07-31T05:10:33;19.89;87.41
70336;SHT31;57756;47.408;18.940;2023-07-31T05:12:58;20.10;83.38
70336;SHT31;57756;47.408;18.940;2023-07-31T05:15:24;20.20;82.62
70336;SHT31;57756;47.408;18.940;2023-07-31T05:17:49;20.36;81.60
70336;SHT31;57756;47.408;18.940;2023-07-31T05:20:15;20.40;80.91
70336;SHT31;57756;47.408;18.940;2023-07-31T05:22:40;20.29;80.89
70336;SHT31;57756;47.408;18.940;2023-07-31T05:25:06;20.30;80.43
70336;SHT31;57756;47.408;18.940;2023-07-31T05:27:32;20.27;80.43
70336;SHT31;57756;47.408;18.940;2023-07-31T05:29:57;20.34;80.82
70336;SHT31;57756;47.408;18.940;2023-07-31T05:32:23;20.44;78.99
70336;SHT31;57756;47.408;18.940;2023-07-31T05:34:51;20.87;78.21
70336;SHT31;57756;47.408;18.940;2023-07-31T05:37:17;21.29;77.41
70336;SHT31;57756;47.408;18.940;2023-07-31T05:39:43;21.45;76.02
70336;SHT31;57756;47.408;18.940;2023-07-31T05:42:08;21.40;75.63
70336;SHT31;57756;47.408;18.940;2023-07-31T05:44:34;21.22;75.33
70336;SHT31;57756;47.408;18.940;2023-07-31T05:47:00;21.13;75.92
70336;SHT31;57756;47.408;18.940;2023-07-31T05:49:25;20.90;76.35
70336;SHT31;57756;47.408;18.940;2023-07-31T05:51:50;20.82;76.16
70336;SHT31;57756;47.408;18.940;2023-07-31T05:54:16;21.05;75.14
70336;SHT31;57756;47.408;18.940;2023-07-31T05:56:42;21.53;74.83
70336;SHT31;57756;47.408;18.940;2023-07-31T05:59:08;21.71;73.25
70336;SHT31;57756;47.408;18.940;2023-07-31T06:01:34;22.08;73.07
70336;SHT31;57756;47.408;18.940;2023-07-31T06:03:59;22.23;71.99
70336;SHT31;57756;47.408;18.940;2023-07-31T06:06:25;22.43;72.38
70336;SHT31;57756;47.408;18.940;2023-07-31T06:08:50;22.87;72.12
70336;SHT31;57756;47.408;18.940;2023-07-31T06:11:16;23.27;70.02
70336;SHT31;57756;47.408;18.940;2023-07-31T06:13:41;23.67;69.21
70336;SHT31;57756;47.408;18.940;2023-07-31T06:16:09;23.75;67.93
70336;SHT31;57756;47.408;18.940;2023-07-31T06:18:35;23.92;67.96
70336;SHT31;57756;47.408;18.940;2023-07-31T06:21:00;24.17;67.55
70336;SHT31;57756;47.408;18.940;2023-07-31T06:23:26;24.52;67.43
70336;SHT31;57756;47.408;18.940;2023-07-31T06:25:51;24.93;66.45
70336;SHT31;57756;47.408;18.940;2023-07-31T06:28:17;24.93;65.42
70336;SHT31;57756;47.408;18.940;2023-07-31T06:30:42;25.06;66.01
70336;SHT31;57756;47.408;18.940;2023-07-31T06:33:08;25.02;65.55
70336;SHT31;57756;47.408;18.940;2023-07-31T06:35:34;24.75;65.06
70336;SHT31;57756;47.408;18.940;2023-07-31T06:38:00;24.40;65.17
70336;SHT31;57756;47.408;18.940;2023-07-31T06:40:26;24.24;66.23
70336;SHT31;57756;47.408;18.940;2023-07-31T06:42:52;23.87;66.28
70336;SHT31;57756;47.408;18.940;2023-07-31T06:45:17;23.77;66.73
70336;SHT31;57756;47.408;18.940;2023-07-31T07:28:01;24.32;64.94
70336;SHT31;57756;47.408;18.940;2023-07-31T07:30:26;24.31;65.17
70336;SHT31;57756;47.408;18.940;2023-07-31T07:32:52;24.31;64.77
70336;SHT31;57756;47.408;18.940;2023-07-31T07:35:17;24.37;63.31
70336;SHT31;57756;47.408;18.940;2023-07-31T07:37:43;24.58;62.48
70336;SHT31;57756;47.408;18.940;2023-07-31T07:40:08;24.44;63.06
70336;SHT31;57756;47.408;18.940;2023-07-31T07:42:34;24.22;63.84
70336;SHT31;57756;47.408;18.940;2023-07-31T07:44:59;24.06;63.88
70336;SHT31;57756;47.408;18.940;2023-07-31T07:47:25;24.17;63.82
70336;SHT31;57756;47.408;18.940;2023-07-31T07:49:50;24.40;63.94
70336;SHT31;57756;47.408;18.940;2023-07-31T07:52:16;24.99;62.57
70336;SHT31;57756;47.408;18.940;2023-07-31T07:54:41;25.57;62.24
70336;SHT31;57756;47.408;18.940;2023-07-31T07:57:06;26.02;60.82
70336;SHT31;57756;47.408;18.940;2023-07-31T07:59:32;26.30;61.30
70336;SHT31;57756;47.408;18.940;2023-07-31T08:01:57;27.18;59.31
70336;SHT31;57756;47.408;18.940;2023-07-31T08:04:23;27.64;58.77
70336;SHT31;57756;47.408;18.940;2023-07-31T08:06:48;27.88;57.21
70336;SHT31;57756;47.408;18.940;2023-07-31T08:09:14;28.02;55.62
70336;SHT31;57756;47.408;18.940;2023-07-31T08:11:39;27.81;54.67
70336;SHT31;57756;47.408;18.940;2023-07-31T08:14:05;27.80;55.28
70336;SHT31;57756;47.408;18.940;2023-07-31T08:16:30;27.80;54.49
70336;SHT31;57756;47.408;18.940;2023-07-31T08:18:56;27.73;54.44
70336;SHT31;57756;47.408;18.940;2023-07-31T08:21:21;27.79;53.87
70336;SHT31;57756;47.408;18.940;2023-07-31T08:23:47;28.12;54.71
70336;SHT31;57756;47.408;18.940;2023-07-31T08:26:19;28.15;53.75
70336;SHT31;57756;47.408;18.940;2023-07-31T08:28:44;28.35;54.14
70336;SHT31;57756;47.408;18.940;2023-07-31T08:31:10;28.55;55.07
70336;SHT31;57756;47.408;18.940;2023-07-31T08:33:36;28.52;53.61
70336;SHT31;57756;47.408;18.940;2023-07-31T08:36:02;28.57;53.40
70336;SHT31;57756;47.408;18.940;2023-07-31T08:38:28;28.80;54.55
70336;SHT31;57756;47.408;18.940;2023-07-31T08:40:56;28.90;53.50
70336;SHT31;57756;47.408;18.940;2023-07-31T08:43:22;29.08;54.17
70336;SHT31;57756;47.408;18.940;2023-07-31T08:45:50;28.79;52.98
70336;SHT31;57756;47.408;18.940;2023-07-31T08:48:17;29.34;52.63
70336;SHT31;57756;47.408;18.940;2023-07-31T08:50:43;29.04;51.82
70336;SHT31;57756;47.408;18.940;2023-07-31T08:53:08;29.04;51.94
70336;SHT31;57756;47.408;18.940;2023-07-31T08:55:35;29.00;51.00
70336;SHT31;57756;47.408;18.940;2023-07-31T08:58:02;28.87;51.24
70336;SHT31;57756;47.408;18.940;2023-07-31T09:00:29;28.96;52.27
70336;SHT31;57756;47.408;18.940;2023-07-31T09:02:56;28.94;53.17
70336;SHT31;57756;47.408;18.940;2023-07-31T09:05:23;28.74;51.28
70336;SHT31;57756;47.408;18.940;2023-07-31T09:07:49;28.69;52.18
70336;SHT31;57756;47.408;18.940;2023-07-31T09:10:15;29.30;52.72
70336;SHT31;57756;47.408;18.940;2023-07-31T09:12:41;29.49;51.30
70336;SHT31;57756;47.408;18.940;2023-07-31T09:15:07;29.78;51.48
70336;SHT31;57756;47.408;18.940;2023-07-31T09:17:35;30.03;51.28
70336;SHT31;57756;47.408;18.940;2023-07-31T09:20:29;29.82;51.63
70336;SHT31;57756;47.408;18.940;2023-07-31T09:22:57;30.05;50.22
70336;SHT31;57756;47.408;18.940;2023-07-31T09:25:29;30.24;49.42
70336;SHT31;57756;47.408;18.940;2023-07-31T09:28:00;30.69;49.92
70336;SHT31;57756;47.408;18.940;2023-07-31T09:30:26;30.49;50.02
70336;SHT31;57756;47.408;18.940;2023-07-31T09:33:00;30.74;48.49
70336;SHT31;57756;47.408;18.940;2023-07-31T09:35:33;31.13;49.57
70336;SHT31;57756;47.408;18.940;2023-07-31T09:38:03;31.38;48.77
70336;SHT31;57756;47.408;18.940;2023-07-31T09:40:34;31.78;49.14
70336;SHT31;57756;47.408;18.940;2023-07-31T09:43:02;31.91;47.47
70336;SHT31;57756;47.408;18.940;2023-07-31T09:45:28;32.18;47.82
70336;SHT31;57756;47.408;18.940;2023-07-31T09:47:55;32.57;49.79
70336;SHT31;57756;47.408;18.940;2023-07-31T09:50:22;32.42;46.81
70336;SHT31;57756;47.408;18.940;2023-07-31T09:52:48;32.53;47.06
70336;SHT31;57756;47.408;18.940;2023-07-31T09:55:14;32.26;46.50
70336;SHT31;57756;47.408;18.940;2023-07-31T09:57:41;32.02;46.21
70336;SHT31;57756;47.408;18.940;2023-07-31T10:00:10;32.23;46.44
70336;SHT31;57756;47.408;18.940;2023-07-31T10:02:37;32.09;46.68
70336;SHT31;57756;47.408;18.940;2023-07-31T10:05:04;32.06;46.81
70336;SHT31;57756;47.408;18.940;2023-07-31T10:07:31;31.96;46.14
70336;SHT31;57756;47.408;18.940;2023-07-31T10:09:59;31.64;46.83
70336;SHT31;57756;47.408;18.940;2023-07-31T10:12:26;31.84;47.04
70336;SHT31;57756;47.408;18.940;2023-07-31T10:14:55;32.66;46.41
70336;SHT31;57756;47.408;18.940;2023-07-31T10:17:24;32.90;46.32
70336;SHT31;57756;47.408;18.940;2023-07-31T10:19:50;32.05;45.21
70336;SHT31;57756;47.408;18.940;2023-07-31T10:22:16;32.70;45.53
70336;SHT31;57756;47.408;18.940;2023-07-31T10:24:45;33.22;46.25
70336;SHT31;57756;47.408;18.940;2023-07-31T10:27:10;33.01;44.77
70336;SHT31;57756;47.408;18.940;2023-07-31T10:29:38;33.07;44.49
70336;SHT31;57756;47.408;18.940;2023-07-31T10:32:04;33.07;46.09
70336;SHT31;57756;47.408;18.940;2023-07-31T10:34:34;33.34;46.93
70336;SHT31;57756;47.408;18.940;2023-07-31T10:37:23;33.66;44.52
70336;SHT31;57756;47.408;18.940;2023-07-31T10:39:59;34.51;43.65
70336;SHT31;57756;47.408;18.940;2023-07-31T10:42:37;34.89;43.94
70336;SHT31;57756;47.408;18.940;2023-07-31T10:45:08;34.68;42.34
70336;SHT31;57756;47.408;18.940;2023-07-31T10:47:44;34.29;42.95
70336;SHT31;57756;47.408;18.940;2023-07-31T10:50:17;34.47;42.59
70336;SHT31;57756;47.408;18.940;2023-07-31T10:52:54;34.28;42.69
70336;SHT31;57756;47.408;18.940;2023-07-31T10:58:18;33.93;43.97
70336;SHT31;57756;47.408;18.940;2023-07-31T11:00:44;33.62;43.69
70336;SHT31;57756;47.408;18.940;2023-07-31T11:03:12;33.18;42.97
70336;SHT31;57756;47.408;18.940;2023-07-31T11:08:11;33.89;43.65
70336;SHT31;57756;47.408;18.940;2023-07-31T11:10:37;33.96;43.35
70336;SHT31;57756;47.408;18.940;2023-07-31T11:13:04;34.51;42.52
70336;SHT31;57756;47.408;18.940;2023-07-31T11:15:30;34.00;42.87
70336;SHT31;57756;47.408;18.940;2023-07-31T11:17:56;34.06;43.82
70336;SHT31;57756;47.408;18.940;2023-07-31T11:20:24;33.65;42.17
70336;SHT31;57756;47.408;18.940;2023-07-31T11:22:49;33.34;41.85
70336;SHT31;57756;47.408;18.940;2023-07-31T11:25:16;33.49;41.45
70336;SHT31;57756;47.408;18.940;2023-07-31T11:27:42;33.45;41.69
70336;SHT31;57756;47.408;18.940;2023-07-31T11:30:09;33.69;43.60
70336;SHT31;57756;47.408;18.940;2023-07-31T11:32:36;33.99;41.49
70336;SHT31;57756;47.408;18.940;2023-07-31T11:35:02;33.29;41.22
70336;SHT31;57756;47.408;18.940;2023-07-31T11:37:42;33.11;42.55
70336;SHT31;57756;47.408;18.940;2023-07-31T11:40:08;33.21;43.00
70336;SHT31;57756;47.408;18.940;2023-07-31T11:42:34;33.32;42.25
70336;SHT31;57756;47.408;18.940;2023-07-31T11:45:05;33.52;41.29
70336;SHT31;57756;47.408;18.940;2023-07-31T11:47:36;34.09;41.28
70336;SHT31;57756;47.408;18.940;2023-07-31T11:50:05;34.14;42.58
70336;SHT31;57756;47.408;18.940;2023-07-31T11:52:38;33.76;41.46
70336;SHT31;57756;47.408;18.940;2023-07-31T11:55:07;34.41;42.10
70336;SHT31;57756;47.408;18.940;2023-07-31T11:57:36;34.34;41.48
70336;SHT31;57756;47.408;18.940;2023-07-31T12:00:02;34.18;40.33
70336;SHT31;57756;47.408;18.940;2023-07-31T12:02:28;33.45;41.40
70336;SHT31;57756;47.408;18.940;2023-07-31T12:04:54;33.11;40.18
70336;SHT31;57756;47.408;18.940;2023-07-31T12:07:19;33.28;41.53
70336;SHT31;57756;47.408;18.940;2023-07-31T12:09:55;33.46;41.75
70336;SHT31;57756;47.408;18.940;2023-07-31T12:12:25;33.38;42.10
70336;SHT31;57756;47.408;18.940;2023-07-31T12:14:50;32.64;41.00
70336;SHT31;57756;47.408;18.940;2023-07-31T12:17:17;33.04;42.37
70336;SHT31;57756;47.408;18.940;2023-07-31T12:19:44;32.98;42.13
70336;SHT31;57756;47.408;18.940;2023-07-31T12:22:14;32.71;42.73
70336;SHT31;57756;47.408;18.940;2023-07-31T12:24:43;32.64;43.83
70336;SHT31;57756;47.408;18.940;2023-07-31T12:27:14;32.74;41.91
70336;SHT31;57756;47.408;18.940;2023-07-31T12:29:42;32.06;42.99
70336;SHT31;57756;47.408;18.940;2023-07-31T12:32:39;31.71;43.27
70336;SHT31;57756;47.408;18.940;2023-07-31T12:35:06;32.01;45.34
70336;SHT31;57756;47.408;18.940;2023-07-31T12:37:32;32.15;44.20
70336;SHT31;57756;47.408;18.940;2023-07-31T12:39:58;31.94;43.61
70336;SHT31;57756;47.408;18.940;2023-07-31T12:42:30;32.11;43.28
70336;SHT31;57756;47.408;18.940;2023-07-31T12:44:56;32.40;44.76
70336;SHT31;57756;47.408;18.940;2023-07-31T12:47:21;31.95;44.02
70336;SHT31;57756;47.408;18.940;2023-07-31T12:49:47;31.96;44.24
70336;SHT31;57756;47.408;18.940;2023-07-31T12:52:12;31.78;45.42
70336;SHT31;57756;47.408;18.940;2023-07-31T12:54:38;31.31;44.54
70336;SHT31;57756;47.408;18.940;2023-07-31T12:57:03;31.40;44.27
70336;SHT31;57756;47.408;18.940;2023-07-31T12:59:30;31.22;44.50
70336;SHT31;57756;47.408;18.940;2023-07-31T13:01:55;31.16;45.35
70336;SHT31;57756;47.408;18.940;2023-07-31T13:04:21;31.19;45.86
70336;SHT31;57756;47.408;18.940;2023-07-31T13:06:46;31.22;44.94
70336;SHT31;57756;47.408;18.940;2023-07-31T13:09:12;31.34;44.82
70336;SHT31;57756;47.408;18.940;2023-07-31T13:11:37;30.71;44.02
70336;SHT31;57756;47.408;18.940;2023-07-31T13:14:03;30.79;44.98
70336;SHT31;57756;47.408;18.940;2023-07-31T13:16:28;30.78;44.72
70336;SHT31;57756;47.408;18.940;2023-07-31T13:18:54;31.13;45.27
70336;SHT31;57756;47.408;18.940;2023-07-31T13:21:19;30.93;44.84
70336;SHT31;57756;47.408;18.940;2023-07-31T13:23:46;30.85;45.02
70336;SHT31;57756;47.408;18.940;2023-07-31T13:26:12;30.51;45.95
70336;SHT31;57756;47.408;18.940;2023-07-31T13:28:37;30.31;45.97
70336;SHT31;57756;47.408;18.940;2023-07-31T13:31:03;30.25;47.28
70336;SHT31;57756;47.408;18.940;2023-07-31T13:33:28;29.99;45.74
70336;SHT31;57756;47.408;18.940;2023-07-31T13:35:54;29.48;46.23
70336;SHT31;57756;47.408;18.940;2023-07-31T13:38:19;29.44;47.62
70336;SHT31;57756;47.408;18.940;2023-07-31T13:40:45;29.68;47.90
70336;SHT31;57756;47.408;18.940;2023-07-31T13:43:10;29.41;48.05
70336;SHT31;57756;47.408;18.940;2023-07-31T13:45:36;29.41;47.53
70336;SHT31;57756;47.408;18.940;2023-07-31T13:48:01;29.35;47.83
70336;SHT31;57756;47.408;18.940;2023-07-31T13:50:27;29.45;48.76
70336;SHT31;57756;47.408;18.940;2023-07-31T13:52:53;29.42;46.80
70336;SHT31;57756;47.408;18.940;2023-07-31T13:55:18;29.18;47.31
70336;SHT31;57756;47.408;18.940;2023-07-31T13:57:44;28.96;47.66
70336;SHT31;57756;47.408;18.940;2023-07-31T14:00:10;28.77;47.20
70336;SHT31;57756;47.408;18.940;2023-07-31T14:02:36;28.67;47.23
70336;SHT31;57756;47.408;18.940;2023-07-31T14:05:01;28.70;47.91
70336;SHT31;57756;47.408;18.940;2023-07-31T14:07:28;28.60;48.21
70336;SHT31;57756;47.408;18.940;2023-07-31T14:09:53;28.55;48.50
70336;SHT31;57756;47.408;18.940;2023-07-31T14:12:19;28.52;48.59
70336;SHT31;57756;47.408;18.940;2023-07-31T14:14:44;28.34;47.90
70336;SHT31;57756;47.408;18.940;2023-07-31T14:17:10;28.21;48.52
70336;SHT31;57756;47.408;18.940;2023-07-31T14:19:35;28.38;48.32
70336;SHT31;57756;47.408;18.940;2023-07-31T14:22:01;28.07;49.10
70336;SHT31;57756;47.408;18.940;2023-07-31T14:24:26;28.15;48.40
70336;SHT31;57756;47.408;18.940;2023-07-31T14:26:52;28.05;49.41
70336;SHT31;57756;47.408;18.940;2023-07-31T14:29:17;27.98;49.51
70336;SHT31;57756;47.408;18.940;2023-07-31T14:31:43;28.04;48.37
70336;SHT31;57756;47.408;18.940;2023-07-31T14:34:08;28.19;49.36
70336;SHT31;57756;47.408;18.940;2023-07-31T14:36:34;28.35;49.22
70336;SHT31;57756;47.408;18.940;2023-07-31T14:38:59;28.29;50.37
70336;SHT31;57756;47.408;18.940;2023-07-31T14:41:25;28.26;49.05
70336;SHT31;57756;47.408;18.940;2023-07-31T14:43:50;28.07;48.96
70336;SHT31;57756;47.408;18.940;2023-07-31T14:46:16;27.96;49.16
70336;SHT31;57756;47.408;18.940;2023-07-31T14:48:41;27.74;49.86
70336;SHT31;57756;47.408;18.940;2023-07-31T14:51:07;27.73;49.14
70336;SHT31;57756;47.408;18.940;2023-07-31T14:53:32;27.79;50.93
70336;SHT31;57756;47.408;18.940;2023-07-31T14:55:58;27.79;50.14
70336;SHT31;57756;47.408;18.940;2023-07-31T14:58:23;27.61;50.69
70336;SHT31;57756;47.408;18.940;2023-07-31T15:00:50;27.59;49.66
70336;SHT31;57756;47.408;18.940;2023-07-31T15:03:15;27.43;49.29
70336;SHT31;57756;47.408;18.940;2023-07-31T15:05:41;27.45;49.93
70336;SHT31;57756;47.408;18.940;2023-07-31T15:08:06;27.40;51.40
70336;SHT31;57756;47.408;18.940;2023-07-31T15:10:32;27.39;50.24
70336;SHT31;57756;47.408;18.940;2023-07-31T15:12:57;27.36;49.92
70336;SHT31;57756;47.408;18.940;2023-07-31T15:15:23;27.16;50.55
70336;SHT31;57756;47.408;18.940;2023-07-31T15:22:03;26.96;52.43
70336;SHT31;57756;47.408;18.940;2023-07-31T15:44:32;26.63;51.60
70336;SHT31;57756;47.408;18.940;2023-07-31T15:46:58;26.63;50.86
70336;SHT31;57756;47.408;18.940;2023-07-31T15:49:23;26.61;51.68
70336;SHT31;57756;47.408;18.940;2023-07-31T15:51:49;26.56;51.70
70336;SHT31;57756;47.408;18.940;2023-07-31T15:54:14;26.53;51.31
70336;SHT31;57756;47.408;18.940;2023-07-31T15:56:40;26.51;51.45
70336;SHT31;57756;47.408;18.940;2023-07-31T15:59:05;26.53;52.26
70336;SHT31;57756;47.408;18.940;2023-07-31T16:01:31;26.39;51.30
70336;SHT31;57756;47.408;18.940;2023-07-31T16:03:56;26.30;53.01
70336;SHT31;57756;47.408;18.940;2023-07-31T16:06:22;26.25;53.35
70336;SHT31;57756;47.408;18.940;2023-07-31T16:08:47;26.18;53.56
70336;SHT31;57756;47.408;18.940;2023-07-31T16:11:13;26.08;53.05
70336;SHT31;57756;47.408;18.940;2023-07-31T16:13:38;26.01;53.58
70336;SHT31;57756;47.408;18.940;2023-07-31T16:16:04;26.01;53.81
70336;SHT31;57756;47.408;18.940;2023-07-31T16:18:29;25.99;53.29
70336;SHT31;57756;47.408;18.940;2023-07-31T16:20:55;25.98;54.36
70336;SHT31;57756;47.408;18.940;2023-07-31T16:23:21;25.88;53.64